sensor_id;sensor_type;location;lat;lon;timestamp;pressure;altitude;pressure_sealevel;temperature;humidity
71465;BME280;59274;49.874;9.154;2022-10-16T00:01:11;100172.47;;;14.99;100.00
71465;BME280;59274;49.874;9.154;2022-10-16T00:03:38;100172.47;;;14.99;100.00
71465;BME280;59274;49.874;9.154;2022-10-16T00:06:04;100165.53;;;14.91;100.00
71465;BME280;59274;49.874;9.154;2022-10-16T00:08:30;100162.44;;;14.85;100.00
71465;BME280;59274;49.874;9.154;2022-10-16T00:11:01;100166.31;;;14.88;100.00
71465;BME280;59274;49.874;9.154;2022-10-16T00:13:27;100162.03;;;14.87;100.00
71465;BME280;59274;49.874;9.154;2022-10-16T00:15:56;100174.94;;;14.86;100.00
71465;BME280;59274;49.874;9.154;2022-10-16T00:18:21;100167.09;;;14.88;100.00
71465;BME280;59274;49.874;9.154;2022-10-16T00:20:47;100174.88;;;14.94;100.00
71465;BME280;59274;49.874;9.154;2022-10-16T00:23:12;100180.00;;;14.88;100.00
71465;BME280;59274;49.874;9.154;2022-10-16T00:25:38;100185.81;;;14.94;100.00
71465;BME280;59274;49.874;9.154;2022-10-16T00:28:03;100176.75;;;15.00;100.00
71465;BME280;59274;49.874;9.154;2022-10-16T00:30:29;100169.38;;;14.97;100.00
71465;BME280;59274;49.874;9.154;2022-10-16T00:32:55;100171.72;;;14.99;100.00
71465;BME280;59274;49.874;9.154;2022-10-16T00:35:20;100171.41;;;14.89;100.00
71465;BME280;59274;49.874;9.154;2022-10-16T00:37:46;100181.94;;;14.91;100.00
71465;BME280;59274;49.874;9.154;2022-10-16T00:40:12;100184.97;;;15.00;100.00
71465;BME280;59274;49.874;9.154;2022-10-16T00:42:37;100178.75;;;14.96;100.00
71465;BME280;59274;49.874;9.154;2022-10-16T00:45:03;100178.31;;;15.01;100.00
71465;BME280;59274;49.874;9.154;2022-10-16T00:47:35;100161.53;;;15.03;100.00
71465;BME280;59274;49.874;9.154;2022-10-16T00:50:08;100165.47;;;14.98;100.00
71465;BME280;59274;49.874;9.154;2022-10-16T00:52:35;100170.50;;;15.03;100.00
71465;BME280;59274;49.874;9.154;2022-10-16T00:55:03;100163.53;;;14.99;100.00
71465;BME280;59274;49.874;9.154;2022-10-16T00:57:29;100176.28;;;15.12;100.00
71465;BME280;59274;49.874;9.154;2022-10-16T00:59:55;100174.41;;;15.02;100.00
71465;BME280;59274;49.874;9.154;2022-10-16T01:02:21;100175.22;;;14.99;100.00
71465;BME280;59274;49.874;9.154;2022-10-16T01:04:52;100179.94;;;14.99;100.00
71465;BME280;59274;49.874;9.154;2022-10-16T01:09:59;100179.94;;;14.99;100.00
71465;BME280;59274;49.874;9.154;2022-10-16T01:12:49;100178.38;;;14.98;100.00
71465;BME280;59274;49.874;9.154;2022-10-16T01:15:54;100180.38;;;14.90;100.00
71465;BME280;59274;49.874;9.154;2022-10-16T01:18:35;100174.03;;;15.00;100.00
71465;BME280;59274;49.874;9.154;2022-10-16T01:21:05;100178.72;;;15.03;100.00
71465;BME280;59274;49.874;9.154;2022-10-16T01:31:54;100188.88;;;14.99;100.00
71465;BME280;59274;49.874;9.154;2022-10-16T01:34:44;100183.84;;;14.94;100.00
71465;BME280;59274;49.874;9.154;2022-10-16T01:37:15;100183.13;;;14.86;100.00
71465;BME280;59274;49.874;9.154;2022-10-16T01:39:45;100186.16;;;14.99;100.00
71465;BME280;59274;49.874;9.154;2022-10-16T01:42:19;100191.94;;;15.12;100.00
71465;BME280;59274;49.874;9.154;2022-10-16T01:44:47;100192.81;;;14.98;100.00
71465;BME280;59274;49.874;9.154;2022-10-16T01:47:14;100191.22;;;15.04;100.00
71465;BME280;59274;49.874;9.154;2022-10-16T01:49:41;100194.25;;;15.13;100.00
71465;BME280;59274;49.874;9.154;2022-10-16T01:52:11;100204.03;;;15.11;100.00
71465;BME280;59274;49.874;9.154;2022-10-16T01:54:41;100201.31;;;15.11;100.00
71465;BME280;59274;49.874;9.154;2022-10-16T01:57:08;100207.19;;;15.09;100.00
71465;BME280;59274;49.874;9.154;2022-10-16T01:59:42;100201.03;;;14.95;100.00
71465;BME280;59274;49.874;9.154;2022-10-16T02:02:10;100201.44;;;14.93;100.00
71465;BME280;59274;49.874;9.154;2022-10-16T02:05:20;100195.78;;;15.14;100.00
71465;BME280;59274;49.874;9.154;2022-10-16T02:07:36;100202.22;;;14.97;100.00
71465;BME280;59274;49.874;9.154;2022-10-16T02:10:02;100200.25;;;14.94;100.00
71465;BME280;59274;49.874;9.154;2022-10-16T02:12:31;100202.16;;;15.01;100.00
71465;BME280;59274;49.874;9.154;2022-10-16T02:14:58;100203.66;;;15.09;100.00
71465;BME280;59274;49.874;9.154;2022-10-16T02:17:24;100209.25;;;14.95;100.00
71465;BME280;59274;49.874;9.154;2022-10-16T02:19:52;100209.19;;;15.02;100.00
71465;BME280;59274;49.874;9.154;2022-10-16T02:22:24;100209.22;;;14.98;100.00
71465;BME280;59274;49.874;9.154;2022-10-16T02:24:56;100213.47;;;15.03;100.00
71465;BME280;59274;49.874;9.154;2022-10-16T02:27:33;100217.41;;;15.02;100.00
71465;BME280;59274;49.874;9.154;2022-10-16T02:32:34;100220.97;;;14.99;100.00
71465;BME280;59274;49.874;9.154;2022-10-16T02:35:01;100221.41;;;14.90;100.00
71465;BME280;59274;49.874;9.154;2022-10-16T02:37:28;100213.59;;;14.88;100.00
71465;BME280;59274;49.874;9.154;2022-10-16T02:39:55;100196.53;;;14.70;100.00
71465;BME280;59274;49.874;9.154;2022-10-16T02:42:27;100208.63;;;14.73;100.00
71465;BME280;59274;49.874;9.154;2022-10-16T02:44:53;100207.78;;;14.79;100.00
71465;BME280;59274;49.874;9.154;2022-10-16T02:47:19;100210.13;;;14.81;100.00
71465;BME280;59274;49.874;9.154;2022-10-16T02:49:44;100212.09;;;14.80;100.00
71465;BME280;59274;49.874;9.154;2022-10-16T02:52:10;100213.25;;;14.83;100.00
71465;BME280;59274;49.874;9.154;2022-10-16T02:54:35;100207.78;;;14.79;100.00
71465;BME280;59274;49.874;9.154;2022-10-16T02:57:00;100210.56;;;14.76;100.00
71465;BME280;59274;49.874;9.154;2022-10-16T02:59:26;100213.66;;;14.78;100.00
71465;BME280;59274;49.874;9.154;2022-10-16T03:01:51;100210.56;;;14.76;100.00
71465;BME280;59274;49.874;9.154;2022-10-16T03:04:17;100205.88;;;14.73;100.00
71465;BME280;59274;49.874;9.154;2022-10-16T03:06:42;100199.69;;;14.69;100.00
71465;BME280;59274;49.874;9.154;2022-10-16T03:09:07;100202.38;;;14.72;100.00
71465;BME280;59274;49.874;9.154;2022-10-16T03:11:33;100203.16;;;14.73;100.00
71465;BME280;59274;49.874;9.154;2022-10-16T03:13:58;100213.31;;;14.72;100.00
71465;BME280;59274;49.874;9.154;2022-10-16T03:16:24;100215.59;;;14.81;100.00
71465;BME280;59274;49.874;9.154;2022-10-16T03:18:49;100217.16;;;14.78;100.00
71465;BME280;59274;49.874;9.154;2022-10-16T03:21:15;100217.56;;;14.80;100.00
71465;BME280;59274;49.874;9.154;2022-10-16T03:23:40;100222.63;;;14.78;100.00
71465;BME280;59274;49.874;9.154;2022-10-16T03:26:06;100216.78;;;14.80;100.00
71465;BME280;59274;49.874;9.154;2022-10-16T03:28:31;100225.75;;;14.84;100.00
71465;BME280;59274;49.874;9.154;2022-10-16T03:30:57;100222.91;;;14.98;100.00
71465;BME280;59274;49.874;9.154;2022-10-16T03:33:22;100220.25;;;14.87;100.00
71465;BME280;59274;49.874;9.154;2022-10-16T03:35:54;100220.28;;;14.80;100.00
71465;BME280;59274;49.874;9.154;2022-10-16T03:38:20;100217.94;;;14.82;100.00
71465;BME280;59274;49.874;9.154;2022-10-16T03:40:46;100230.06;;;14.78;100.00
71465;BME280;59274;49.874;9.154;2022-10-16T03:43:11;100213.66;;;14.78;100.00
71465;BME280;59274;49.874;9.154;2022-10-16T03:45:36;100209.38;;;14.77;100.00
71465;BME280;59274;49.874;9.154;2022-10-16T03:48:02;100226.88;;;14.86;100.00
71465;BME280;59274;49.874;9.154;2022-10-16T03:50:29;100220.28;;;14.84;100.00
71465;BME280;59274;49.874;9.154;2022-10-16T03:52:54;100219.50;;;14.83;100.00
71465;BME280;59274;49.874;9.154;2022-10-16T03:55:20;100231.56;;;14.89;100.00
71465;BME280;59274;49.874;9.154;2022-10-16T03:57:45;100227.69;;;14.83;100.00
71465;BME280;59274;49.874;9.154;2022-10-16T04:00:11;100229.66;;;14.83;100.00
71465;BME280;59274;49.874;9.154;2022-10-16T04:02:37;100231.59;;;14.82;100.00
71465;BME280;59274;49.874;9.154;2022-10-16T04:05:03;100241.38;;;14.83;100.00
71465;BME280;59274;49.874;9.154;2022-10-16T04:07:28;100243.69;;;14.85;100.00
71465;BME280;59274;49.874;9.154;2022-10-16T04:09:54;100250.34;;;14.84;100.00
71465;BME280;59274;49.874;9.154;2022-10-16T04:12:19;100251.13;;;14.84;100.00
71465;BME280;59274;49.874;9.154;2022-10-16T04:14:45;100247.19;;;14.89;100.00
71465;BME280;59274;49.874;9.154;2022-10-16T04:17:10;100253.03;;;14.91;100.00
71465;BME280;59274;49.874;9.154;2022-10-16T04:19:36;100257.69;;;14.94;100.00
71465;BME280;59274;49.874;9.154;2022-10-16T04:22:02;100251.06;;;14.95;100.00
71465;BME280;59274;49.874;9.154;2022-10-16T04:24:28;100265.50;;;14.92;100.00
71465;BME280;59274;49.874;9.154;2022-10-16T04:26:53;100264.34;;;14.97;100.00
71465;BME280;59274;49.874;9.154;2022-10-16T04:29:18;100267.06;;;14.97;100.00
71465;BME280;59274;49.874;9.154;2022-10-16T04:31:44;100249.84;;;15.00;100.00
71465;BME280;59274;49.874;9.154;2022-10-16T04:34:09;100264.34;;;14.97;100.00
71465;BME280;59274;49.874;9.154;2022-10-16T04:36:35;100265.88;;;14.98;100.00
71465;BME280;59274;49.874;9.154;2022-10-16T04:39:00;100262.38;;;14.94;100.00
71465;BME280;59274;49.874;9.154;2022-10-16T04:41:25;100267.84;;;14.97;100.00
71465;BME280;59274;49.874;9.154;2022-10-16T04:43:51;100267.50;;;14.88;100.00
71465;BME280;59274;49.874;9.154;2022-10-16T04:46:16;100262.44;;;14.86;100.00
71465;BME280;59274;49.874;9.154;2022-10-16T04:48:42;100270.63;;;14.90;100.00
71465;BME280;59274;49.874;9.154;2022-10-16T04:51:07;100267.13;;;14.86;100.00
71465;BME280;59274;49.874;9.154;2022-10-16T04:53:32;100270.72;;;14.72;100.00
71465;BME280;59274;49.874;9.154;2022-10-16T04:55:58;100267.97;;;14.72;100.00
71465;BME280;59274;49.874;9.154;2022-10-16T04:58:24;100275.00;;;14.73;100.00
71465;BME280;59274;49.874;9.154;2022-10-16T05:00:49;100263.75;;;14.61;100.00
71465;BME280;59274;49.874;9.154;2022-10-16T05:03:14;100273.88;;;14.67;100.00
71465;BME280;59274;49.874;9.154;2022-10-16T05:05:44;100269.63;;;14.63;100.00
71465;BME280;59274;49.874;9.154;2022-10-16T05:08:14;100266.88;;;14.63;100.00
71465;BME280;59274;49.874;9.154;2022-10-16T05:10:44;100271.16;;;14.64;100.00
71465;BME280;59274;49.874;9.154;2022-10-16T05:13:09;100264.53;;;14.58;100.00
71465;BME280;59274;49.874;9.154;2022-10-16T05:15:34;100273.91;;;14.57;100.00
71465;BME280;59274;49.874;9.154;2022-10-16T05:18:00;100280.88;;;14.75;100.00
71465;BME280;59274;49.874;9.154;2022-10-16T05:20:25;100271.94;;;14.64;100.00
71465;BME280;59274;49.874;9.154;2022-10-16T05:22:51;100270.00;;;14.58;100.00
71465;BME280;59274;49.874;9.154;2022-10-16T05:25:17;100267.28;;;14.58;100.00
71465;BME280;59274;49.874;9.154;2022-10-16T05:27:42;100266.91;;;14.52;100.00
71465;BME280;59274;49.874;9.154;2022-10-16T05:30:08;100254.09;;;14.42;100.00
71465;BME280;59274;49.874;9.154;2022-10-16T05:32:34;100250.16;;;14.36;100.00
71465;BME280;59274;49.874;9.154;2022-10-16T05:35:02;100262.31;;;14.38;100.00
71465;BME280;59274;49.874;9.154;2022-10-16T05:37:27;100265.03;;;14.42;100.00
71465;BME280;59274;49.874;9.154;2022-10-16T05:39:53;100256.84;;;14.38;100.00
71465;BME280;59274;49.874;9.154;2022-10-16T05:42:18;100251.72;;;14.37;100.00
71465;BME280;59274;49.874;9.154;2022-10-16T05:44:44;100254.09;;;14.42;100.00
71465;BME280;59274;49.874;9.154;2022-10-16T05:47:09;100259.53;;;14.45;100.00
71465;BME280;59274;49.874;9.154;2022-10-16T05:49:36;100261.91;;;14.40;100.00
71465;BME280;59274;49.874;9.154;2022-10-16T05:52:01;100268.88;;;14.55;100.00
71465;BME280;59274;49.874;9.154;2022-10-16T05:54:27;100273.13;;;14.60;100.00
71465;BME280;59274;49.874;9.154;2022-10-16T05:56:52;100268.47;;;14.53;100.00
71465;BME280;59274;49.874;9.154;2022-10-16T05:59:18;100276.72;;;14.46;100.00
71465;BME280;59274;49.874;9.154;2022-10-16T06:01:43;100284.50;;;14.51;100.00
71465;BME280;59274;49.874;9.154;2022-10-16T06:04:09;100288.31;;;14.64;100.00
71465;BME280;59274;49.874;9.154;2022-10-16T06:06:34;100292.28;;;14.56;100.00
71465;BME280;59274;49.874;9.154;2022-10-16T06:09:01;100301.63;;;14.59;100.00
71465;BME280;59274;49.874;9.154;2022-10-16T06:11:31;100305.97;;;14.53;100.00
71465;BME280;59274;49.874;9.154;2022-10-16T06:13:58;100300.03;;;14.68;100.00
71465;BME280;59274;49.874;9.154;2022-10-16T06:16:27;100309.84;;;14.62;100.00
71465;BME280;59274;49.874;9.154;2022-10-16T06:18:53;100304.34;;;14.69;100.00
71465;BME280;59274;49.874;9.154;2022-10-16T06:21:21;100301.63;;;14.59;100.00
71465;BME280;59274;49.874;9.154;2022-10-16T06:23:47;100314.84;;;14.74;100.00
71465;BME280;59274;49.874;9.154;2022-10-16T06:26:15;100319.16;;;14.75;100.00
71465;BME280;59274;49.874;9.154;2022-10-16T06:28:41;100319.09;;;14.82;100.00
71465;BME280;59274;49.874;9.154;2022-10-16T06:31:08;100335.06;;;14.95;100.00
71465;BME280;59274;49.874;9.154;2022-10-16T06:33:34;100330.75;;;14.94;100.00
71465;BME280;59274;49.874;9.154;2022-10-16T06:36:02;100334.22;;;15.05;100.00
71465;BME280;59274;49.874;9.154;2022-10-16T06:38:28;100337.31;;;15.07;100.00
71465;BME280;59274;49.874;9.154;2022-10-16T06:40:53;100344.78;;;15.03;100.00
71465;BME280;59274;49.874;9.154;2022-10-16T06:43:19;100348.59;;;15.19;100.00
71465;BME280;59274;49.874;9.154;2022-10-16T06:45:51;100346.66;;;15.16;100.00
71465;BME280;59274;49.874;9.154;2022-10-16T06:48:16;100339.19;;;15.24;100.00
71465;BME280;59274;49.874;9.154;2022-10-16T06:50:42;100344.66;;;15.20;100.00
71465;BME280;59274;49.874;9.154;2022-10-16T06:53:07;100343.88;;;15.23;100.00
71465;BME280;59274;49.874;9.154;2022-10-16T06:55:32;100345.03;;;15.22;100.00
71465;BME280;59274;49.874;9.154;2022-10-16T06:57:58;100347.00;;;15.22;100.00
71465;BME280;59274;49.874;9.154;2022-10-16T07:00:23;100354.34;;;15.36;100.00
71465;BME280;59274;49.874;9.154;2022-10-16T07:02:49;100352.47;;;15.25;100.00
71465;BME280;59274;49.874;9.154;2022-10-16T07:05:15;100349.69;;;15.33;100.00
71465;BME280;59274;49.874;9.154;2022-10-16T07:07:40;100347.28;;;15.38;100.00
71465;BME280;59274;49.874;9.154;2022-10-16T07:10:06;100346.84;;;15.47;100.00
71465;BME280;59274;49.874;9.154;2022-10-16T07:12:31;100356.22;;;15.46;100.00
71465;BME280;59274;49.874;9.154;2022-10-16T07:14:56;100355.41;;;15.49;100.00
71465;BME280;59274;49.874;9.154;2022-10-16T07:17:22;100369.41;;;15.65;100.00
71465;BME280;59274;49.874;9.154;2022-10-16T07:19:47;100380.00;;;15.63;100.00
71465;BME280;59274;49.874;9.154;2022-10-16T07:22:13;100385.78;;;15.72;100.00
71465;BME280;59274;49.874;9.154;2022-10-16T07:24:38;100387.72;;;15.75;100.00
71465;BME280;59274;49.874;9.154;2022-10-16T07:27:03;100392.38;;;15.78;100.00
71465;BME280;59274;49.874;9.154;2022-10-16T07:29:29;100388.22;;;15.63;100.00
71465;BME280;59274;49.874;9.154;2022-10-16T07:31:54;100387.00;;;15.68;100.00
71465;BME280;59274;49.874;9.154;2022-10-16T07:34:20;100383.09;;;15.65;100.00
71465;BME280;59274;49.874;9.154;2022-10-16T07:36:49;100386.91;;;15.78;100.00
71465;BME280;59274;49.874;9.154;2022-10-16T07:39:15;100387.28;;;15.84;100.00
71465;BME280;59274;49.874;9.154;2022-10-16T07:41:40;100400.06;;;15.97;100.00
71465;BME280;59274;49.874;9.154;2022-10-16T07:44:06;100388.00;;;15.91;100.00
71465;BME280;59274;49.874;9.154;2022-10-16T07:46:31;100404.38;;;15.95;100.00
71465;BME280;59274;49.874;9.154;2022-10-16T07:48:58;100405.50;;;16.04;100.00
71465;BME280;59274;49.874;9.154;2022-10-16T07:51:25;100403.88;;;16.07;100.00
71465;BME280;59274;49.874;9.154;2022-10-16T07:53:52;100410.16;;;16.08;100.00
71465;BME280;59274;49.874;9.154;2022-10-16T07:56:18;100406.16;;;16.16;100.00
71465;BME280;59274;49.874;9.154;2022-10-16T07:58:44;100409.31;;;16.14;100.00
71465;BME280;59274;49.874;9.154;2022-10-16T08:01:12;100410.09;;;16.15;100.00
71465;BME280;59274;49.874;9.154;2022-10-16T08:03:41;100419.00;;;16.26;100.00
71465;BME280;59274;49.874;9.154;2022-10-16T08:06:07;100418.16;;;16.29;100.00
71465;BME280;59274;49.874;9.154;2022-10-16T08:08:33;100423.66;;;16.29;100.00
71465;BME280;59274;49.874;9.154;2022-10-16T08:10:58;100431.38;;;16.41;100.00
71465;BME280;59274;49.874;9.154;2022-10-16T08:13:24;100428.56;;;16.48;100.00
71465;BME280;59274;49.874;9.154;2022-10-16T08:15:51;100423.75;;;16.56;100.00
71465;BME280;59274;49.874;9.154;2022-10-16T08:18:18;100432.84;;;16.49;100.00
71465;BME280;59274;49.874;9.154;2022-10-16T08:20:44;100419.97;;;16.46;100.00
71465;BME280;59274;49.874;9.154;2022-10-16T08:23:11;100416.91;;;16.40;100.00
71465;BME280;59274;49.874;9.154;2022-10-16T08:25:37;100427.81;;;16.44;100.00
71465;BME280;59274;49.874;9.154;2022-10-16T08:28:04;100428.22;;;16.42;100.00
71465;BME280;59274;49.874;9.154;2022-10-16T08:30:31;100441.13;;;16.45;100.00
71465;BME280;59274;49.874;9.154;2022-10-16T08:32:56;100443.81;;;16.49;100.00
71465;BME280;59274;49.874;9.154;2022-10-16T08:35:23;100444.53;;;16.60;100.00
71465;BME280;59274;49.874;9.154;2022-10-16T08:37:48;100451.78;;;16.77;100.00
71465;BME280;59274;49.874;9.154;2022-10-16T08:40:41;100450.25;;;17.07;100.00
71465;BME280;59274;49.874;9.154;2022-10-16T08:48:49;100476.69;;;16.94;100.00
71465;BME280;59274;49.874;9.154;2022-10-16T08:51:20;100474.41;;;16.89;100.00
71465;BME280;59274;49.874;9.154;2022-10-16T08:53:58;100479.19;;;16.81;100.00
71465;BME280;59274;49.874;9.154;2022-10-16T08:56:25;100479.56;;;16.83;100.00
71465;BME280;59274;49.874;9.154;2022-10-16T08:58:52;100488.56;;;16.83;100.00
71465;BME280;59274;49.874;9.154;2022-10-16T09:01:19;100496.75;;;16.87;100.00
71465;BME280;59274;49.874;9.154;2022-10-16T09:06:48;100504.41;;;16.65;100.00
71465;BME280;59274;49.874;9.154;2022-10-16T09:09:28;100504.44;;;16.58;100.00
71465;BME280;59274;49.874;9.154;2022-10-16T09:12:22;100517.50;;;16.43;100.00
71465;BME280;59274;49.874;9.154;2022-10-16T09:20:38;100533.00;;;16.20;100.00
71465;BME280;59274;49.874;9.154;2022-10-16T09:22:36;100534.97;;;16.16;100.00
71465;BME280;59274;49.874;9.154;2022-10-16T09:25:14;100535.78;;;16.09;100.00
71465;BME280;59274;49.874;9.154;2022-10-16T09:27:40;100540.94;;;16.00;100.00
71465;BME280;59274;49.874;9.154;2022-10-16T09:30:20;100547.19;;;16.00;100.00
71465;BME280;59274;49.874;9.154;2022-10-16T09:32:48;100546.41;;;16.03;100.00
71465;BME280;59274;49.874;9.154;2022-10-16T09:35:21;100546.41;;;16.03;100.00
71465;BME280;59274;49.874;9.154;2022-10-16T09:37:49;100555.81;;;16.02;100.00
71465;BME280;59274;49.874;9.154;2022-10-16T09:43:05;100558.84;;;16.15;100.00
71465;BME280;59274;49.874;9.154;2022-10-16T09:45:36;100559.13;;;16.28;100.00
71465;BME280;59274;49.874;9.154;2022-10-16T09:48:11;100563.78;;;16.38;100.00
71465;BME280;59274;49.874;9.154;2022-10-16T09:50:37;100572.19;;;16.65;100.00
71465;BME280;59274;49.874;9.154;2022-10-16T09:53:05;100567.47;;;16.69;100.00
71465;BME280;59274;49.874;9.154;2022-10-16T09:55:31;100558.28;;;16.86;100.00
71465;BME280;59274;49.874;9.154;2022-10-16T09:57:56;100561.59;;;17.08;100.00
71465;BME280;59274;49.874;9.154;2022-10-16T10:00:23;100563.94;;;17.09;100.00
71465;BME280;59274;49.874;9.154;2022-10-16T10:02:49;100575.56;;;17.24;100.00
71465;BME280;59274;49.874;9.154;2022-10-16T10:05:20;100568.03;;;17.32;100.00
71465;BME280;59274;49.874;9.154;2022-10-16T10:07:54;100568.72;;;17.39;100.00
71465;BME280;59274;49.874;9.154;2022-10-16T10:10:24;100567.06;;;17.45;100.00
71465;BME280;59274;49.874;9.154;2022-10-16T10:12:49;100569.72;;;17.52;100.00
71465;BME280;59274;49.874;9.154;2022-10-16T10:15:16;100571.31;;;17.50;100.00
71465;BME280;59274;49.874;9.154;2022-10-16T10:17:57;100563.25;;;17.70;100.00
71465;BME280;59274;49.874;9.154;2022-10-16T10:20:33;100563.06;;;17.84;100.00
71465;BME280;59274;49.874;9.154;2022-10-16T10:23:00;100567.34;;;17.88;100.00
71465;BME280;59274;49.874;9.154;2022-10-16T10:25:34;100566.59;;;17.84;100.00
71465;BME280;59274;49.874;9.154;2022-10-16T10:49:54;100556.59;;;18.48;100.00
71465;BME280;59274;49.874;9.154;2022-10-16T10:55:10;100567.72;;;18.67;100.00
71465;BME280;59274;49.874;9.154;2022-10-16T11:00:23;100561.53;;;18.83;100.00
71465;BME280;59274;49.874;9.154;2022-10-16T11:03:27;100557.31;;;18.98;100.00
71465;BME280;59274;49.874;9.154;2022-10-16T11:06:02;100552.69;;;19.15;100.00
71465;BME280;59274;49.874;9.154;2022-10-16T11:08:46;100557.38;;;19.38;100.00
71465;BME280;59274;49.874;9.154;2022-10-16T11:11:19;100551.72;;;19.45;99.20
71465;BME280;59274;49.874;9.154;2022-10-16T11:14:03;100549.31;;;19.27;100.00
71465;BME280;59274;49.874;9.154;2022-10-16T11:22:01;100552.41;;;18.90;98.75
71465;BME280;59274;49.874;9.154;2022-10-16T11:24:35;100555.03;;;18.73;100.00
71465;BME280;59274;49.874;9.154;2022-10-16T11:27:07;100543.81;;;18.84;100.00
71465;BME280;59274;49.874;9.154;2022-10-16T11:29:49;100545.63;;;18.94;100.00
71465;BME280;59274;49.874;9.154;2022-10-16T11:32:28;100535.25;;;19.22;100.00
71465;BME280;59274;49.874;9.154;2022-10-16T11:35:00;100553.56;;;19.51;99.83
71465;BME280;59274;49.874;9.154;2022-10-16T11:37:31;100549.00;;;19.81;98.37
71465;BME280;59274;49.874;9.154;2022-10-16T11:40:09;100548.44;;;20.06;96.30
71465;BME280;59274;49.874;9.154;2022-10-16T11:42:46;100552.59;;;20.14;90.66
71465;BME280;59274;49.874;9.154;2022-10-16T11:45:20;100548.28;;;20.13;87.72
71465;BME280;59274;49.874;9.154;2022-10-16T11:48:12;100551.84;;;20.29;88.12
71465;BME280;59274;49.874;9.154;2022-10-16T11:50:50;100551.16;;;20.74;87.19
71465;BME280;59274;49.874;9.154;2022-10-16T11:53:45;100556.25;;;21.04;86.15
71465;BME280;59274;49.874;9.154;2022-10-16T11:56:16;100554.88;;;20.96;84.19
71465;BME280;59274;49.874;9.154;2022-10-16T12:01:43;100555.66;;;20.36;88.32
71465;BME280;59274;49.874;9.154;2022-10-16T12:04:16;100564.59;;;20.40;87.39
71465;BME280;59274;49.874;9.154;2022-10-16T12:09:37;100555.38;;;20.62;84.30
71465;BME280;59274;49.874;9.154;2022-10-16T12:12:03;100547.28;;;20.55;85.39
71465;BME280;59274;49.874;9.154;2022-10-16T12:14:37;100557.09;;;20.24;84.98
71465;BME280;59274;49.874;9.154;2022-10-16T12:17:25;100551.06;;;20.29;87.42
71465;BME280;59274;49.874;9.154;2022-10-16T12:28:03;100546.38;;;19.93;92.55
71465;BME280;59274;49.874;9.154;2022-10-16T12:30:33;100540.75;;;19.81;91.40
71465;BME280;59274;49.874;9.154;2022-10-16T12:33:21;100558.06;;;19.81;89.30
71465;BME280;59274;49.874;9.154;2022-10-16T12:35:48;100557.09;;;19.72;90.02
71465;BME280;59274;49.874;9.154;2022-10-16T12:38:24;100554.97;;;19.60;92.05
71465;BME280;59274;49.874;9.154;2022-10-16T12:41:03;100554.97;;;19.60;92.61
71465;BME280;59274;49.874;9.154;2022-10-16T12:43:43;100557.00;;;19.75;91.08
71465;BME280;59274;49.874;9.154;2022-10-16T12:48:36;100550.38;;;20.57;91.03
71465;BME280;59274;49.874;9.154;2022-10-16T12:51:19;100555.00;;;20.77;88.68
71465;BME280;59274;49.874;9.154;2022-10-16T12:54:19;100550.66;;;20.92;86.19
71465;BME280;59274;49.874;9.154;2022-10-16T12:56:51;100555.56;;;21.00;84.23
71465;BME280;59274;49.874;9.154;2022-10-16T13:10:41;100559.34;;;21.06;77.22
71465;BME280;59274;49.874;9.154;2022-10-16T13:24:06;100576.03;;;21.32;77.19
71465;BME280;59274;49.874;9.154;2022-10-16T13:27:01;100579.94;;;21.34;79.58
71465;BME280;59274;49.874;9.154;2022-10-16T13:29:31;100572.38;;;21.22;81.17
71465;BME280;59274;49.874;9.154;2022-10-16T13:31:59;100573.94;;;21.07;83.79
71465;BME280;59274;49.874;9.154;2022-10-16T13:34:26;100576.41;;;20.89;80.41
71465;BME280;59274;49.874;9.154;2022-10-16T13:36:53;100582.97;;;20.79;80.69
71465;BME280;59274;49.874;9.154;2022-10-16T13:39:29;100575.06;;;20.64;84.08
71465;BME280;59274;49.874;9.154;2022-10-16T13:42:02;100567.63;;;20.61;86.65
71465;BME280;59274;49.874;9.154;2022-10-16T13:44:40;100569.00;;;20.53;86.85
71465;BME280;59274;49.874;9.154;2022-10-16T13:47:18;100567.72;;;20.42;86.45
71465;BME280;59274;49.874;9.154;2022-10-16T13:49:44;100563.94;;;20.36;84.75
71465;BME280;59274;49.874;9.154;2022-10-16T13:52:20;100557.28;;;20.33;85.24
71465;BME280;59274;49.874;9.154;2022-10-16T13:54:46;100568.81;;;20.28;84.84
71465;BME280;59274;49.874;9.154;2022-10-16T13:57:14;100572.88;;;20.23;85.75
71465;BME280;59274;49.874;9.154;2022-10-16T13:59:40;100580.59;;;20.12;82.96
71465;BME280;59274;49.874;9.154;2022-10-16T14:02:26;100583.94;;;20.04;82.30
71465;BME280;59274;49.874;9.154;2022-10-16T14:04:53;100585.31;;;19.96;82.73
71465;BME280;59274;49.874;9.154;2022-10-16T14:07:28;100586.69;;;19.87;82.88
71465;BME280;59274;49.874;9.154;2022-10-16T14:09:55;100581.31;;;19.80;83.45
71465;BME280;59274;49.874;9.154;2022-10-16T14:12:23;100582.50;;;19.79;85.37
71465;BME280;59274;49.874;9.154;2022-10-16T14:14:51;100585.41;;;19.72;84.57
71465;BME280;59274;49.874;9.154;2022-10-16T14:17:27;100587.81;;;19.70;85.09
71465;BME280;59274;49.874;9.154;2022-10-16T14:20:03;100584.00;;;19.64;86.50
71465;BME280;59274;49.874;9.154;2022-10-16T14:24:55;100595.59;;;19.55;91.49
71465;BME280;59274;49.874;9.154;2022-10-16T14:27:34;100599.91;;;19.57;96.95
71465;BME280;59274;49.874;9.154;2022-10-16T14:30:12;100584.72;;;19.48;97.88
71465;BME280;59274;49.874;9.154;2022-10-16T14:32:41;100584.78;;;19.45;98.67
71465;BME280;59274;49.874;9.154;2022-10-16T14:35:33;100583.78;;;19.35;99.55
71465;BME280;59274;49.874;9.154;2022-10-16T14:38:01;100579.53;;;19.31;100.00